createdAt,value
2023-03-26T00:02:31.914Z,7.14
2023-03-26T00:05:34.931Z,7.12
2023-03-26T00:08:39.918Z,7.09
2023-03-26T00:11:43.627Z,7.08
2023-03-26T00:14:46.401Z,7.08
2023-03-26T00:17:49.154Z,7.08
2023-03-26T00:20:52.181Z,7.07
2023-03-26T00:23:58.540Z,7.07
2023-03-26T00:27:02.007Z,7.07
2023-03-26T00:30:05.923Z,7.05
2023-03-26T00:33:11.775Z,7.04
2023-03-26T00:36:17.674Z,7.03
2023-03-26T00:39:24.136Z,7.02
2023-03-26T00:42:27.409Z,7.00
2023-03-26T00:45:30.446Z,6.98
2023-03-26T00:48:44.548Z,6.96
2023-03-26T00:51:48.160Z,6.96
2023-03-26T00:54:52.326Z,6.97
2023-03-26T00:57:55.569Z,6.96
2023-03-26T01:01:04.670Z,6.95
2023-03-26T01:04:31.425Z,6.93
2023-03-26T01:07:36.965Z,6.91
2023-03-26T01:10:39.809Z,6.90
2023-03-26T01:13:47.929Z,6.89
2023-03-26T01:16:55.175Z,6.87
2023-03-26T01:20:13.035Z,6.86
2023-03-26T01:23:23.885Z,6.81
2023-03-26T01:26:36.470Z,6.76
2023-03-26T01:29:49.443Z,6.77
2023-03-26T01:33:14.321Z,6.74
2023-03-26T01:36:27.348Z,6.71
2023-03-26T01:39:49.758Z,6.71
2023-03-26T01:43:13.978Z,6.70
2023-03-26T01:46:19.544Z,6.69
2023-03-26T01:49:22.453Z,6.67
2023-03-26T01:52:26.300Z,6.67
2023-03-26T01:55:43.514Z,6.66
2023-03-26T01:59:01.682Z,6.67
2023-03-26T02:02:21.879Z,6.66
2023-03-26T02:05:38.001Z,6.66
2023-03-26T02:08:46.615Z,6.69
2023-03-26T02:11:50.678Z,6.70
2023-03-26T02:14:54.076Z,6.69
2023-03-26T02:17:59.704Z,6.67
2023-03-26T02:21:10.098Z,6.65
2023-03-26T02:24:14.586Z,6.61
2023-03-26T02:27:18.470Z,6.58
2023-03-26T02:30:29.704Z,6.56
2023-03-26T02:33:33.674Z,6.54
2023-03-26T02:36:37.189Z,6.52
2023-03-26T02:39:40.708Z,6.51
2023-03-26T02:42:49.626Z,6.48
2023-03-26T02:45:53.268Z,6.50
2023-03-26T02:49:18.569Z,6.50
2023-03-26T02:52:21.622Z,6.50
2023-03-26T02:55:25.552Z,6.49
2023-03-26T02:58:30.524Z,6.49
2023-03-26T03:01:35.203Z,6.47
2023-03-26T03:04:38.316Z,6.46
2023-03-26T03:07:41.281Z,6.44
2023-03-26T03:10:44.183Z,6.46
2023-03-26T03:13:56.388Z,6.49
2023-03-26T03:17:01.830Z,6.50
2023-03-26T03:20:09.276Z,6.51
2023-03-26T03:23:14.267Z,6.51
2023-03-26T03:26:21.844Z,6.52
2023-03-26T03:29:28.424Z,6.53
2023-03-26T03:32:31.923Z,6.53
2023-03-26T03:35:38.389Z,6.53
2023-03-26T03:38:41.840Z,6.54
2023-03-26T03:41:45.020Z,6.54
2023-03-26T03:44:49.686Z,6.56
2023-03-26T03:48:11.355Z,6.57
2023-03-26T03:51:18.492Z,6.58
2023-03-26T03:54:32.038Z,6.58
2023-03-26T03:57:46.767Z,6.59
2023-03-26T04:01:00.947Z,6.61
2023-03-26T04:04:26.645Z,6.65
2023-03-26T04:07:34.638Z,6.68
2023-03-26T04:10:41.008Z,6.69
2023-03-26T04:13:46.604Z,6.68
2023-03-26T04:17:15.509Z,6.66
2023-03-26T04:20:19.545Z,6.65
2023-03-26T04:23:24.501Z,6.63
2023-03-26T04:26:32.958Z,6.61
2023-03-26T04:29:46.164Z,6.59
2023-03-26T04:32:54.235Z,6.57
2023-03-26T04:36:01.815Z,6.56
2023-03-26T04:39:06.890Z,6.55
2023-03-26T04:42:33.443Z,6.56
2023-03-26T04:45:48.210Z,6.57
2023-03-26T04:48:52.375Z,6.55
2023-03-26T04:51:55.564Z,6.53
2023-03-26T04:55:25.913Z,6.50
2023-03-26T04:58:36.595Z,6.46
2023-03-26T05:01:40.273Z,6.44
2023-03-26T05:04:46.373Z,6.43
2023-03-26T05:07:49.928Z,6.44
2023-03-26T05:10:53.790Z,6.44
2023-03-26T05:14:04.522Z,6.42
2023-03-26T05:17:10.996Z,6.42
2023-03-26T05:20:21.039Z,6.42
2023-03-26T05:23:24.326Z,6.43
2023-03-26T05:26:33.267Z,6.45
2023-03-26T05:29:36.575Z,6.47
2023-03-26T05:32:39.377Z,6.49
2023-03-26T05:35:43.603Z,6.54
2023-03-26T05:38:47.721Z,6.60
2023-03-26T05:41:53.669Z,6.66
2023-03-26T05:44:58.321Z,6.74
2023-03-26T05:48:03.685Z,6.77
2023-03-26T05:51:07.975Z,6.78
2023-03-26T05:54:11.138Z,6.83
2023-03-26T05:57:32.707Z,6.86
2023-03-26T06:01:18.541Z,6.87
2023-03-26T06:04:41.166Z,6.92
2023-03-26T06:08:20.645Z,7.00
2023-03-26T06:11:27.592Z,7.05
2023-03-26T06:14:30.731Z,7.10
2023-03-26T06:17:48.980Z,7.18
2023-03-26T06:21:15.002Z,7.27
2023-03-26T06:24:32.773Z,7.33
2023-03-26T06:27:45.598Z,7.36
2023-03-26T06:31:09.561Z,7.41
2023-03-26T06:34:16.482Z,7.41
2023-03-26T06:37:19.218Z,7.37
2023-03-26T06:40:23.836Z,7.34
2023-03-26T06:43:39.494Z,7.33
2023-03-26T06:47:08.421Z,7.32
2023-03-26T06:50:32.361Z,7.36
2023-03-26T06:54:10.560Z,7.43
2023-03-26T06:57:24.116Z,7.51
2023-03-26T07:00:46.001Z,7.56
2023-03-26T07:04:07.343Z,7.60
2023-03-26T07:07:29.058Z,7.70
2023-03-26T07:10:50.417Z,7.86
2023-03-26T07:14:13.772Z,8.07
2023-03-26T07:17:23.415Z,8.25
2023-03-26T07:20:36.526Z,8.28
2023-03-26T07:23:40.204Z,8.26
2023-03-26T07:27:16.605Z,8.27
2023-03-26T07:30:36.666Z,8.34
2023-03-26T07:34:27.752Z,8.40
2023-03-26T07:37:51.136Z,8.38
2023-03-26T07:41:51.112Z,8.47
2023-03-26T07:45:33.990Z,8.67
2023-03-26T07:48:58.395Z,8.72
2023-03-26T07:52:19.447Z,8.88
2023-03-26T07:55:24.634Z,9.14
2023-03-26T07:58:57.032Z,9.18
2023-03-26T08:02:52.703Z,9.17
2023-03-26T08:06:28.213Z,9.10
2023-03-26T08:09:51.427Z,9.03
2023-03-26T08:13:16.426Z,8.96
2023-03-26T08:16:40.891Z,8.94
2023-03-26T08:19:50.226Z,8.94
2023-03-26T08:23:14.148Z,8.99
2023-03-26T08:26:31.313Z,8.99
2023-03-26T08:30:05.212Z,9.13
2023-03-26T08:33:16.865Z,9.17
2023-03-26T08:36:19.671Z,9.10
2023-03-26T08:39:22.544Z,9.01
2023-03-26T08:42:31.847Z,9.08
2023-03-26T08:46:02.037Z,9.18
2023-03-26T08:49:49.612Z,9.20
2023-03-26T08:53:31.389Z,9.29
2023-03-26T08:57:24.783Z,9.32
2023-03-26T09:00:32.286Z,9.40
2023-03-26T09:03:58.913Z,9.55
2023-03-26T09:07:39.719Z,9.85
2023-03-26T09:11:04.452Z,9.96
2023-03-26T09:14:16.154Z,9.94
2023-03-26T09:17:57.979Z,9.93
2023-03-26T09:21:24.936Z,9.84
2023-03-26T09:24:35.606Z,9.71
2023-03-26T09:27:50.381Z,9.59
2023-03-26T09:31:14.928Z,9.57
2023-03-26T09:34:32.113Z,9.74
2023-03-26T09:37:58.375Z,9.90
2023-03-26T09:41:12.978Z,10.07
2023-03-26T09:44:37.445Z,10.17
2023-03-26T09:48:09.006Z,10.25
2023-03-26T09:51:29.176Z,10.58
2023-03-26T09:54:34.970Z,10.79
2023-03-26T09:58:06.989Z,10.89
2023-03-26T10:01:19.443Z,10.90
2023-03-26T10:04:23.858Z,10.88
2023-03-26T10:07:38.845Z,10.83
2023-03-26T10:10:57.588Z,10.88
2023-03-26T10:14:12.669Z,11.02
2023-03-26T10:18:04.656Z,11.20
2023-03-26T10:21:45.462Z,11.26
2023-03-26T10:25:08.514Z,11.37
2023-03-26T10:28:17.535Z,11.56
2023-03-26T10:32:02.861Z,11.68
2023-03-26T10:35:23.425Z,11.73
2023-03-26T10:39:36.331Z,11.82
2023-03-26T10:42:57.455Z,11.92
2023-03-26T10:46:39.498Z,11.90
2023-03-26T10:49:50.093Z,11.82
2023-03-26T10:53:10.466Z,11.96
2023-03-26T10:56:18.833Z,12.02
2023-03-26T10:59:24.322Z,12.00
2023-03-26T11:02:36.098Z,12.13
2023-03-26T11:06:01.123Z,12.19
2023-03-26T11:09:06.968Z,12.13
2023-03-26T11:12:26.402Z,12.00
2023-03-26T11:15:38.688Z,11.91
2023-03-26T11:18:51.919Z,11.90
2023-03-26T11:22:03.639Z,11.83
2023-03-26T11:25:33.296Z,11.73
2023-03-26T11:28:41.859Z,11.62
2023-03-26T11:32:11.069Z,11.48
2023-03-26T11:35:39.758Z,11.34
2023-03-26T11:38:49.242Z,11.29
2023-03-26T11:42:07.370Z,11.28
2023-03-26T11:45:25.936Z,11.24
2023-03-26T11:48:44.343Z,11.26
2023-03-26T11:51:48.854Z,11.40
2023-03-26T11:54:51.668Z,11.66
2023-03-26T11:57:59.404Z,11.91
2023-03-26T12:01:18.831Z,12.07
2023-03-26T12:04:43.405Z,12.06
2023-03-26T12:07:52.438Z,11.87
2023-03-26T12:11:04.066Z,11.66
2023-03-26T12:14:07.839Z,11.47
2023-03-26T12:17:31.616Z,11.39
2023-03-26T12:20:36.906Z,11.40
2023-03-26T12:24:05.334Z,11.57
2023-03-26T12:27:24.920Z,11.77
2023-03-26T12:30:34.287Z,11.86
2023-03-26T12:33:39.030Z,11.98
2023-03-26T12:36:49.945Z,12.03
2023-03-26T12:40:14.309Z,12.08
2023-03-26T12:44:46.409Z,12.14
2023-03-26T12:47:59.034Z,12.17
2023-03-26T12:50:55.448Z,12.07
2023-03-26T12:54:04.420Z,11.85
2023-03-26T12:57:17.052Z,11.53
2023-03-26T13:00:28.774Z,11.14
2023-03-26T13:03:53.332Z,10.88
2023-03-26T13:07:09.605Z,10.77
2023-03-26T13:10:41.002Z,10.67
2023-03-26T13:14:15.550Z,10.40
2023-03-26T13:17:24.583Z,10.18
2023-03-26T13:20:39.803Z,10.08
2023-03-26T13:23:54.587Z,10.12
2023-03-26T13:27:31.808Z,10.24
2023-03-26T13:31:17.906Z,10.39
2023-03-26T13:39:09.440Z,10.69
2023-03-26T13:42:25.523Z,10.81
2023-03-26T13:45:40.377Z,10.94
2023-03-26T13:48:53.019Z,10.94
2023-03-26T13:51:58.070Z,10.95
2023-03-26T13:55:24.690Z,10.88
2023-03-26T13:58:36.399Z,10.81
2023-03-26T14:01:48.699Z,10.84
2023-03-26T14:04:58.735Z,10.91
2023-03-26T14:08:10.654Z,11.00
2023-03-26T14:11:22.641Z,11.02
2023-03-26T14:14:49.284Z,11.05
2023-03-26T14:18:27.311Z,10.99
2023-03-26T14:21:36.137Z,10.98
2023-03-26T14:25:20.526Z,10.94
2023-03-26T14:28:38.370Z,10.89
2023-03-26T14:31:43.762Z,10.92
2023-03-26T14:34:54.873Z,10.98
2023-03-26T14:37:58.663Z,11.10
2023-03-26T14:41:23.292Z,11.19
2023-03-26T14:44:48.582Z,11.27
2023-03-26T14:48:28.113Z,11.34
2023-03-26T14:51:46.438Z,11.34
2023-03-26T14:54:53.706Z,11.30
2023-03-26T14:58:22.307Z,11.14
2023-03-26T15:01:27.564Z,11.03
2023-03-26T15:04:51.139Z,10.96
2023-03-26T15:08:33.692Z,10.90
2023-03-26T15:11:54.282Z,10.86
2023-03-26T15:15:40.849Z,10.80
2023-03-26T15:19:19.042Z,10.73
2023-03-26T15:23:06.224Z,10.70
2023-03-26T15:26:45.467Z,10.70
2023-03-26T15:30:10.382Z,10.69
2023-03-26T15:33:38.524Z,10.65
2023-03-26T15:37:17.661Z,10.63
2023-03-26T15:40:33.836Z,10.62
2023-03-26T15:44:22.660Z,10.64
2023-03-26T15:47:56.322Z,10.64
2023-03-26T15:50:59.184Z,10.61
2023-03-26T15:54:43.521Z,10.57
2023-03-26T15:57:53.376Z,10.52
2023-03-26T16:00:56.609Z,10.53
2023-03-26T16:04:14.520Z,10.44
2023-03-26T16:07:41.375Z,10.29
2023-03-26T16:10:52.578Z,10.15
2023-03-26T16:14:17.411Z,10.03
2023-03-26T16:17:23.552Z,9.99
2023-03-26T16:20:34.524Z,9.91
2023-03-26T16:23:47.604Z,9.83
2023-03-26T16:27:03.270Z,9.74
2023-03-26T16:30:16.084Z,9.68
2023-03-26T16:33:21.154Z,9.61
2023-03-26T16:36:34.497Z,9.54
2023-03-26T16:39:38.719Z,9.46
2023-03-26T16:43:05.003Z,9.38
2023-03-26T16:46:32.762Z,9.33
2023-03-26T16:50:07.844Z,9.24
2023-03-26T16:53:42.753Z,9.13
2023-03-26T16:56:54.854Z,9.02
2023-03-26T17:00:16.469Z,8.94
2023-03-26T17:03:55.064Z,8.87
2023-03-26T17:07:13.821Z,8.78
2023-03-26T17:10:37.777Z,8.71
2023-03-26T17:14:18.327Z,8.65
2023-03-26T17:17:36.863Z,8.58
2023-03-26T17:20:51.880Z,8.51
2023-03-26T17:24:15.699Z,8.43
2023-03-26T17:27:37.683Z,8.34
2023-03-26T17:30:48.772Z,8.27
2023-03-26T17:33:52.474Z,8.19
2023-03-26T17:36:58.549Z,8.10
2023-03-26T17:40:01.729Z,8.09
2023-03-26T17:43:11.629Z,8.11
2023-03-26T17:46:22.305Z,8.12
2023-03-26T17:49:31.237Z,8.12
2023-03-26T17:52:48.074Z,8.10
2023-03-26T17:55:52.362Z,8.07
2023-03-26T17:59:11.632Z,8.06
2023-03-26T18:02:21.650Z,8.02
2023-03-26T18:05:28.993Z,7.96
2023-03-26T18:09:05.962Z,7.92
2023-03-26T18:12:38.600Z,7.85
2023-03-26T18:15:59.025Z,7.79
2023-03-26T18:19:17.560Z,7.73
2023-03-26T18:22:25.665Z,7.64
2023-03-26T18:25:33.890Z,7.58
2023-03-26T18:28:42.548Z,7.52
2023-03-26T18:31:48.218Z,7.46
2023-03-26T18:34:56.931Z,7.41
2023-03-26T18:38:00.088Z,7.31
2023-03-26T18:41:04.082Z,7.25
2023-03-26T18:44:14.735Z,7.22
2023-03-26T18:47:18.818Z,7.15
2023-03-26T18:50:36.772Z,7.09
2023-03-26T18:53:48.320Z,7.03
2023-03-26T18:56:52.326Z,7.01
2023-03-26T19:00:08.922Z,7.00
2023-03-26T19:03:14.965Z,6.98
2023-03-26T19:06:21.092Z,6.93
2023-03-26T19:09:31.594Z,6.90
2023-03-26T19:12:37.332Z,6.85
2023-03-26T19:15:43.837Z,6.82
2023-03-26T19:18:47.376Z,6.71
2023-03-26T19:21:50.620Z,6.58
2023-03-26T19:24:58.820Z,6.49
2023-03-26T19:28:01.611Z,6.43
2023-03-26T19:31:16.715Z,6.35
2023-03-26T19:34:33.649Z,6.25
2023-03-26T19:37:50.547Z,6.18
2023-03-26T19:40:58.295Z,6.14
2023-03-26T19:44:06.101Z,6.09
2023-03-26T19:47:17.829Z,6.07
2023-03-26T19:50:24.879Z,6.03
2023-03-26T19:53:37.352Z,5.99
2023-03-26T19:56:40.710Z,5.94
2023-03-26T19:59:43.851Z,5.91
2023-03-26T20:02:54.056Z,5.88
2023-03-26T20:05:57.208Z,5.82
2023-03-26T20:09:00.081Z,5.76
2023-03-26T20:12:02.927Z,5.68
2023-03-26T20:15:19.348Z,5.59
2023-03-26T20:18:22.530Z,5.53
2023-03-26T20:21:26.460Z,5.51
2023-03-26T20:24:30.639Z,5.52
2023-03-26T20:27:33.364Z,5.54
2023-03-26T20:30:37.992Z,5.56
2023-03-26T20:33:41.292Z,5.56
2023-03-26T20:36:45.693Z,5.51
2023-03-26T20:39:48.816Z,5.50
2023-03-26T20:42:51.615Z,5.49
2023-03-26T20:45:55.805Z,5.48
2023-03-26T20:48:59.981Z,5.41
2023-03-26T20:52:03.281Z,5.36
2023-03-26T20:55:06.582Z,5.32
2023-03-26T20:58:17.929Z,5.30
2023-03-26T21:01:34.462Z,5.31
2023-03-26T21:04:37.334Z,5.31
2023-03-26T21:07:43.900Z,5.27
2023-03-26T21:10:47.689Z,5.24
2023-03-26T21:13:59.942Z,5.22
2023-03-26T21:17:03.076Z,5.20
2023-03-26T21:20:11.499Z,5.17
2023-03-26T21:23:32.367Z,5.16
2023-03-26T21:26:52.264Z,5.18
2023-03-26T21:29:56.287Z,5.20
2023-03-26T21:32:59.730Z,5.23
2023-03-26T21:36:04.491Z,5.25
2023-03-26T21:39:10.953Z,5.26
2023-03-26T21:42:14.138Z,5.26
2023-03-26T21:45:18.404Z,5.27
2023-03-26T21:48:21.726Z,5.29
2023-03-26T21:51:24.921Z,5.30
2023-03-26T21:54:32.595Z,5.28
2023-03-26T21:57:38.304Z,5.27
2023-03-26T22:01:23.284Z,5.27
2023-03-26T22:04:33.712Z,5.28
2023-03-26T22:07:57.045Z,5.33
2023-03-26T22:10:59.987Z,5.35
2023-03-26T22:14:02.852Z,5.36
2023-03-26T22:17:06.357Z,5.40
2023-03-26T22:20:12.466Z,5.42
2023-03-26T22:23:16.626Z,5.45
2023-03-26T22:26:24.022Z,5.47
2023-03-26T22:29:27.466Z,5.49
2023-03-26T22:32:32.880Z,5.52
2023-03-26T22:35:36.205Z,5.57
2023-03-26T22:38:39.632Z,5.61
2023-03-26T22:41:42.768Z,5.63
2023-03-26T22:44:45.982Z,5.63
2023-03-26T22:47:48.891Z,5.67
2023-03-26T22:50:58.631Z,5.69
2023-03-26T22:54:01.526Z,5.73
2023-03-26T22:57:04.378Z,5.77
2023-03-26T23:00:16.396Z,5.78
2023-03-26T23:03:20.376Z,5.80
2023-03-26T23:06:38.299Z,5.82
2023-03-26T23:09:41.738Z,5.85
2023-03-26T23:12:44.607Z,5.83
2023-03-26T23:15:52.412Z,5.85
2023-03-26T23:18:55.456Z,5.87
2023-03-26T23:21:58.197Z,5.88
2023-03-26T23:25:00.904Z,5.89
2023-03-26T23:28:04.755Z,5.88
2023-03-26T23:31:09.831Z,5.93
2023-03-26T23:34:13.602Z,5.96
2023-03-26T23:37:22.805Z,6.00
2023-03-26T23:40:25.587Z,6.02
2023-03-26T23:43:29.046Z,6.04
2023-03-26T23:46:34.813Z,6.06
2023-03-26T23:49:37.768Z,6.07
2023-03-26T23:52:40.638Z,6.12
2023-03-26T23:55:47.431Z,6.15
2023-03-26T23:58:50.555Z,6.20
